Time;durP1;ratioP1;P1;durP2;ratioP2;P2;SDS_P1;SDS_P2;PMS_P1;PMS_P2;Temp;Humidity;BMP_temperature;BMP_pressure;BME280_temperature;BME280_humidity;BME280_pressure;Samples;Min_cycle;Max_cycle;Signal;HPM_P1;HPM_P2
2022/09/17 00:01:41;;;;;;;;;;;;;;;2.47;72.55;95056.13;5080271;28;20346;-77
2022/09/17 00:04:06;;;;;;;;;;;;;;;2.90;71.72;95055.75;5083313;28;20020;-79
2022/09/17 00:06:33;;;;;;;;;;;;;;;2.87;71.31;95043.72;5066104;28;20207;-80
2022/09/17 00:08:58;;;;;;;;;;;;;;;3.08;71.03;95054.97;5082690;28;19992;-78
2022/09/17 00:11:24;;;;;;;;;;;;;;;2.88;71.36;95055.88;5084398;28;20034;-79
2022/09/17 00:13:50;;;;;;;;;;;;;;;2.35;73.25;95049.38;5082824;28;20002;-79
2022/09/17 00:16:41;;;;;;;;;;;;;;;2.82;71.83;95066.16;5082728;28;19972;-78
2022/09/17 00:19:08;;;;;;;;;;;;;;;3.20;70.06;95050.38;5079880;28;20009;-78
2022/09/17 00:21:34;;;;;;;;;;;;;;;3.00;70.63;95050.44;5082774;28;20293;-79
2022/09/17 00:24:00;;;;;;;;;;;;;;;3.32;69.82;95053.63;5082689;28;19973;-78
2022/09/17 00:26:25;;;;;;;;;;;;;;;2.81;71.45;95065.31;5084202;28;20864;-79
2022/09/17 00:28:51;;;;;;;;;;;;;;;2.36;73.14;95049.25;5082068;28;20000;-77
2022/09/17 00:31:16;;;;;;;;;;;;;;;2.52;73.80;95061.78;5065898;28;20019;-77
2022/09/17 00:33:41;;;;;;;;;;;;;;;2.48;73.76;95056.94;5082077;28;20086;-79
2022/09/17 00:36:07;;;;;;;;;;;;;;;2.57;73.15;95063.16;5066134;28;20075;-78
2022/09/17 00:38:32;;;;;;;;;;;;;;;2.70;72.64;95057.59;5082435;28;20282;-78
2022/09/17 00:40:57;;;;;;;;;;;;;;;2.88;71.90;95063.78;5065206;28;20363;-78
2022/09/17 00:43:49;;;;;;;;;;;;;;;2.83;71.80;95058.13;5082562;28;19976;-78
2022/09/17 00:46:17;;;;;;;;;;;;;;;2.38;73.49;95057.78;5084845;28;20006;-78
2022/09/17 00:48:44;;;;;;;;;;;;;;;2.62;73.49;95068.84;5090895;28;20000;-77
2022/09/17 00:51:09;;;;;;;;;;;;;;;2.71;72.73;95061.88;5083817;28;20021;-77
2022/09/17 00:53:34;;;;;;;;;;;;;;;2.99;70.93;95046.19;5090466;28;20000;-76
2022/09/17 00:56:08;;;;;;;;;;;;;;;3.12;71.25;95044.03;5092874;28;20450;-77
2022/09/17 00:58:33;;;;;;;;;;;;;;;3.05;70.88;95058.72;5093584;28;19997;-76
2022/09/17 01:00:58;;;;;;;;;;;;;;;3.54;69.88;95055.06;5067201;28;19992;-78
2022/09/17 01:03:24;;;;;;;;;;;;;;;3.08;70.24;95062.88;5086152;28;19973;-78
2022/09/17 01:05:56;;;;;;;;;;;;;;;3.11;71.58;95062.59;5085354;28;20526;-78
2022/09/17 01:08:27;;;;;;;;;;;;;;;3.58;69.00;95063.50;5083772;28;19985;-78
2022/09/17 01:11:16;;;;;;;;;;;;;;;3.40;69.70;95056.34;5077554;28;19976;-77
2022/09/17 01:13:41;;;;;;;;;;;;;;;3.08;70.60;95068.97;5046654;28;20484;-76
2022/09/17 01:16:16;;;;;;;;;;;;;;;2.86;71.72;95070.97;5085457;28;19968;-77
2022/09/17 01:18:44;;;;;;;;;;;;;;;2.91;71.20;95071.38;5083705;28;20481;-77
2022/09/17 01:21:12;;;;;;;;;;;;;;;2.57;72.35;95064.00;5085015;28;21019;-77
2022/09/17 01:23:50;;;;;;;;;;;;;;;3.06;71.90;95065.63;5084225;28;19968;-77
2022/09/17 01:26:16;;;;;;;;;;;;;;;2.73;72.53;95068.63;5081521;28;20014;-77
2022/09/17 01:28:46;;;;;;;;;;;;;;;2.81;72.32;95061.84;5084722;28;20563;-76
2022/09/17 01:31:11;;;;;;;;;;;;;;;3.10;71.33;95067.00;5094989;28;20002;-78
2022/09/17 01:33:37;;;;;;;;;;;;;;;3.00;71.35;95064.41;5094162;27;19984;-78
2022/09/17 01:36:08;;;;;;;;;;;;;;;2.73;72.13;95073.09;5085360;28;20176;-76
2022/09/17 01:38:38;;;;;;;;;;;;;;;3.41;70.68;95064.09;5082357;28;19980;-77
2022/09/17 01:41:06;;;;;;;;;;;;;;;3.04;70.79;95072.88;5081270;28;20419;-77
2022/09/17 01:43:51;;;;;;;;;;;;;;;2.89;72.00;95064.59;5084748;28;20267;-79
2022/09/17 01:46:21;;;;;;;;;;;;;;;2.97;72.03;95077.03;5092817;28;20001;-77
2022/09/17 01:48:46;;;;;;;;;;;;;;;3.25;70.85;95071.81;5091125;28;20377;-76
2022/09/17 01:51:13;;;;;;;;;;;;;;;2.84;72.33;95088.69;5083632;28;20388;-78
2022/09/17 01:53:59;;;;;;;;;;;;;;;3.30;70.18;95067.75;5091349;28;19988;-78
2022/09/17 01:56:26;;;;;;;;;;;;;;;3.05;71.70;95079.78;5087808;28;19968;-76
2022/09/17 01:59:15;;;;;;;;;;;;;;;2.71;72.23;95078.47;5081159;28;20340;-79
2022/09/17 02:01:40;;;;;;;;;;;;;;;2.99;72.05;95072.47;5096868;28;20065;-79
2022/09/17 02:04:24;;;;;;;;;;;;;;;2.87;72.74;95074.44;5082672;28;20664;-79
2022/09/17 02:06:51;;;;;;;;;;;;;;;2.53;73.26;95070.50;5091480;28;19989;-79
2022/09/17 02:09:18;;;;;;;;;;;;;;;2.70;72.62;95071.56;5092476;28;19997;-79
2022/09/17 02:11:45;;;;;;;;;;;;;;;3.11;71.89;95070.47;5082645;28;19989;-78
2022/09/17 02:14:29;;;;;;;;;;;;;;;2.87;72.26;95071.81;5080948;28;19988;-77
2022/09/17 02:16:56;;;;;;;;;;;;;;;3.13;71.82;95066.72;5082462;28;19991;-78
2022/09/17 02:19:26;;;;;;;;;;;;;;;2.84;72.24;95067.66;5074399;28;19976;-77
2022/09/17 02:22:17;;;;;;;;;;;;;;;2.76;72.60;95070.19;5065020;28;19989;-78
2022/09/17 02:24:43;;;;;;;;;;;;;;;3.04;72.36;95070.22;5092124;28;19996;-78
2022/09/17 02:27:16;;;;;;;;;;;;;;;3.33;71.19;95066.63;5085054;28;20065;-76
2022/09/17 02:29:41;;;;;;;;;;;;;;;3.87;69.27;95052.78;5069530;28;20075;-77
2022/09/17 02:32:06;;;;;;;;;;;;;;;3.72;68.93;95070.91;5084675;28;20430;-78
2022/09/17 02:34:31;;;;;;;;;;;;;;;3.34;70.15;95064.84;5098733;28;20037;-77
2022/09/17 02:36:58;;;;;;;;;;;;;;;3.13;71.48;95066.72;5083262;28;19995;-78
2022/09/17 02:39:23;;;;;;;;;;;;;;;3.33;70.92;95065.81;5074524;28;19969;-78
2022/09/17 02:42:04;;;;;;;;;;;;;;;3.10;71.06;95069.63;5083368;28;20364;-77
2022/09/17 02:44:49;;;;;;;;;;;;;;;2.95;72.52;95053.50;5082155;28;20367;-78
2022/09/17 02:47:14;;;;;;;;;;;;;;;3.25;71.52;95074.44;5082765;28;20052;-77
2022/09/17 02:49:42;;;;;;;;;;;;;;;2.99;71.48;95073.28;5086677;28;20075;-78
2022/09/17 02:52:17;;;;;;;;;;;;;;;2.31;74.65;95071.66;5065560;28;20276;-78
2022/09/17 02:54:46;;;;;;;;;;;;;;;2.84;72.30;95072.94;5083701;28;19988;-77
2022/09/17 02:57:14;;;;;;;;;;;;;;;2.84;72.14;95067.66;5085342;28;20065;-77
2022/09/17 02:59:45;;;;;;;;;;;;;;;2.77;72.45;95077.94;5084810;28;20740;-78
2022/09/17 03:02:10;;;;;;;;;;;;;;;2.73;72.43;95081.78;5083080;28;20457;-78
2022/09/17 03:04:35;;;;;;;;;;;;;;;3.06;71.73;95067.47;5091014;28;19984;-79
2022/09/17 03:07:04;;;;;;;;;;;;;;;3.47;70.86;95069.78;5086272;28;20040;-77
2022/09/17 03:09:30;;;;;;;;;;;;;;;3.21;71.09;95075.69;5086054;28;20555;-79
2022/09/17 03:11:55;;;;;;;;;;;;;;;2.59;73.28;95075.19;5082969;28;20389;-76
2022/09/17 03:14:20;;;;;;;;;;;;;;;2.93;72.66;95075.66;5092448;28;20042;-78
2022/09/17 03:16:45;;;;;;;;;;;;;;;2.99;72.08;95081.16;5067581;28;19993;-77
2022/09/17 03:19:11;;;;;;;;;;;;;;;2.89;72.32;95089.09;5062619;28;19985;-78
2022/09/17 03:21:36;;;;;;;;;;;;;;;2.73;73.78;95079.16;5064137;28;20592;-77
2022/09/17 03:24:01;;;;;;;;;;;;;;;2.81;73.36;95073.19;5064658;28;20023;-77
2022/09/17 03:26:26;;;;;;;;;;;;;;;2.70;73.08;95074.22;5082075;28;19999;-78
2022/09/17 03:28:52;;;;;;;;;;;;;;;2.94;71.93;95072.06;5077340;28;20452;-77
2022/09/17 03:31:17;;;;;;;;;;;;;;;2.36;74.66;95072.88;5064160;28;20356;-77
2022/09/17 03:33:42;;;;;;;;;;;;;;;2.46;74.97;95074.66;5063139;28;20031;-77
2022/09/17 03:36:07;;;;;;;;;;;;;;;2.81;72.11;95075.84;5063259;28;20059;-78
2022/09/17 03:38:33;;;;;;;;;;;;;;;3.05;72.14;95074.50;5063653;28;20176;-78
2022/09/17 03:41:02;;;;;;;;;;;;;;;3.48;70.80;95071.44;5068387;28;20023;-77
2022/09/17 03:43:27;;;;;;;;;;;;;;;2.73;73.03;95065.22;5070951;28;19977;-77
2022/09/17 03:45:52;;;;;;;;;;;;;;;2.75;72.93;95082.50;5075782;28;20111;-76
2022/09/17 03:48:17;;;;;;;;;;;;;;;2.36;73.71;95083.41;5073088;28;20491;-77
2022/09/17 03:50:43;;;;;;;;;;;;;;;2.41;74.35;95085.59;5083815;28;19964;-78
2022/09/17 03:53:08;;;;;;;;;;;;;;;2.47;74.43;95087.66;5071678;28;20003;-76
2022/09/17 03:55:33;;;;;;;;;;;;;;;2.34;74.67;95093.19;5081170;28;20023;-79
2022/09/17 03:57:58;;;;;;;;;;;;;;;2.51;73.49;95089.03;5091297;28;19988;-79
2022/09/17 04:00:24;;;;;;;;;;;;;;;2.39;74.63;95090.97;5069971;28;20228;-79
2022/09/17 04:02:49;;;;;;;;;;;;;;;2.72;73.59;95095.09;5104179;28;20452;-77
2022/09/17 04:05:14;;;;;;;;;;;;;;;2.35;74.05;95094.03;5087225;28;20531;-76
2022/09/17 04:07:40;;;;;;;;;;;;;;;2.80;72.78;95092.59;5103355;28;20309;-78
2022/09/17 04:10:05;;;;;;;;;;;;;;;2.58;72.91;95101.63;5087212;28;19988;-77
2022/09/17 04:12:30;;;;;;;;;;;;;;;2.67;73.28;95095.50;5067699;28;19968;-79
2022/09/17 04:14:56;;;;;;;;;;;;;;;3.09;71.89;95090.84;5086805;28;19968;-79
2022/09/17 04:17:21;;;;;;;;;;;;;;;3.37;70.40;95094.31;5071491;28;20254;-77
2022/09/17 04:19:46;;;;;;;;;;;;;;;3.40;70.73;95103.72;5084908;28;20051;-78
2022/09/17 04:22:11;;;;;;;;;;;;;;;3.29;71.09;95092.41;5069176;28;20036;-78
2022/09/17 04:24:37;;;;;;;;;;;;;;;3.25;71.21;95095.47;5069578;28;20088;-78
2022/09/17 04:27:02;;;;;;;;;;;;;;;3.06;71.28;95091.94;5070665;28;20020;-76
2022/09/17 04:29:27;;;;;;;;;;;;;;;2.64;74.01;95098.41;5092621;28;21586;-78
2022/09/17 04:31:52;;;;;;;;;;;;;;;2.72;73.27;95095.09;5067136;28;19968;-78
2022/09/17 04:34:18;;;;;;;;;;;;;;;2.64;74.34;95104.53;5066327;28;20036;-79
2022/09/17 04:36:43;;;;;;;;;;;;;;;2.71;73.97;95103.94;5070900;28;19991;-77
2022/09/17 04:39:08;;;;;;;;;;;;;;;2.98;72.88;95104.97;5103430;28;19972;-77
2022/09/17 04:41:33;;;;;;;;;;;;;;;3.09;71.98;95104.00;5085889;28;19995;-79
2022/09/17 04:43:58;;;;;;;;;;;;;;;3.23;71.15;95108.78;5105430;27;20001;-78
2022/09/17 04:46:24;;;;;;;;;;;;;;;2.59;72.53;95121.69;5110615;27;20438;-79
2022/09/17 04:48:49;;;;;;;;;;;;;;;2.32;74.47;95120.59;5103293;28;20477;-79
2022/09/17 04:51:14;;;;;;;;;;;;;;;2.17;75.93;95122.81;5104542;28;20315;-77
2022/09/17 04:53:39;;;;;;;;;;;;;;;2.47;74.08;95120.97;5090326;28;20264;-78
2022/09/17 04:56:05;;;;;;;;;;;;;;;2.57;74.23;95120.97;5083856;28;20379;-79
2022/09/17 04:58:31;;;;;;;;;;;;;;;2.46;73.85;95127.22;5081887;28;19988;-76
2022/09/17 05:00:56;;;;;;;;;;;;;;;2.79;72.24;95119.81;5068556;28;20253;-78
2022/09/17 05:03:22;;;;;;;;;;;;;;;2.95;73.50;95118.41;5103977;28;20029;-79
2022/09/17 05:05:47;;;;;;;;;;;;;;;3.20;72.04;95129.28;5101953;28;20003;-77
2022/09/17 05:08:12;;;;;;;;;;;;;;;3.05;72.12;95127.13;5089296;28;20465;-78
2022/09/17 05:10:37;;;;;;;;;;;;;;;3.02;71.96;95133.50;5103867;28;19972;-79
2022/09/17 05:13:03;;;;;;;;;;;;;;;2.98;72.61;95133.91;5086624;28;20027;-78
2022/09/17 05:15:28;;;;;;;;;;;;;;;3.37;70.44;95127.72;5072678;28;20354;-77
2022/09/17 05:17:53;;;;;;;;;;;;;;;2.75;72.10;95136.84;5086623;28;20152;-79
2022/09/17 05:20:18;;;;;;;;;;;;;;;2.82;72.25;95131.88;5102828;28;20652;-79
2022/09/17 05:22:44;;;;;;;;;;;;;;;3.11;71.55;95131.81;5086112;28;19968;-78
2022/09/17 05:25:10;;;;;;;;;;;;;;;2.89;71.23;95143.47;5086269;28;20550;-79
2022/09/17 05:27:35;;;;;;;;;;;;;;;3.61;69.98;95136.91;5091516;28;19984;-80
2022/09/17 05:30:01;;;;;;;;;;;;;;;3.46;69.66;95136.56;5090461;28;20002;-78
2022/09/17 05:32:26;;;;;;;;;;;;;;;3.99;67.31;95135.06;5085407;28;19995;-77
2022/09/17 05:34:51;;;;;;;;;;;;;;;3.72;68.22;95138.53;5086742;28;20026;-78
2022/09/17 05:37:16;;;;;;;;;;;;;;;3.35;69.76;95153.34;5085619;28;19988;-78
2022/09/17 05:39:42;;;;;;;;;;;;;;;2.45;72.33;95141.34;5086192;28;19984;-79
2022/09/17 05:42:07;;;;;;;;;;;;;;;3.30;69.86;95159.00;5102347;28;20357;-78
2022/09/17 05:44:32;;;;;;;;;;;;;;;3.53;69.09;95156.06;5100933;28;20011;-77
2022/09/17 05:46:58;;;;;;;;;;;;;;;3.13;70.27;95156.16;5086767;28;20464;-80
2022/09/17 05:49:23;;;;;;;;;;;;;;;3.09;70.09;95165.31;5066760;28;20069;-78
2022/09/17 05:51:49;;;;;;;;;;;;;;;3.14;70.84;95164.91;5102927;28;20531;-78
2022/09/17 05:54:14;;;;;;;;;;;;;;;2.71;72.33;95167.03;5073103;28;20390;-78
2022/09/17 05:56:39;;;;;;;;;;;;;;;3.08;70.25;95178.59;5091660;28;20085;-78
2022/09/17 05:59:04;;;;;;;;;;;;;;;2.98;71.13;95174.19;5100032;28;20240;-79
2022/09/17 06:01:30;;;;;;;;;;;;;;;2.83;71.57;95165.94;5101641;28;19988;-79
2022/09/17 06:03:55;;;;;;;;;;;;;;;3.41;69.64;95173.81;5086254;28;20021;-77
2022/09/17 06:06:20;;;;;;;;;;;;;;;3.66;68.32;95167.09;5066947;28;19996;-78
2022/09/17 06:08:45;;;;;;;;;;;;;;;3.30;70.10;95175.63;5102121;28;19992;-79
2022/09/17 06:11:11;;;;;;;;;;;;;;;3.59;69.27;95176.56;5085428;28;19980;-79
2022/09/17 06:13:36;;;;;;;;;;;;;;;3.81;66.76;95182.41;5085244;28;20419;-78
2022/09/17 06:16:01;;;;;;;;;;;;;;;3.48;68.34;95184.63;5084992;28;19968;-79
2022/09/17 06:18:29;;;;;;;;;;;;;;;3.48;68.91;95168.84;5076218;28;19988;-79
2022/09/17 06:20:58;;;;;;;;;;;;;;;3.57;68.79;95189.00;5096037;28;20047;-79
2022/09/17 06:23:24;;;;;;;;;;;;;;;3.56;68.25;95195.25;5085964;28;20022;-80
2022/09/17 06:25:52;;;;;;;;;;;;;;;3.17;69.75;95198.81;5082275;28;19992;-79
2022/09/17 06:28:18;;;;;;;;;;;;;;;2.86;71.17;95199.81;5084110;27;20460;-70
2022/09/17 06:30:43;;;;;;;;;;;;;;;2.48;71.99;95198.84;5101358;28;19985;-70
2022/09/17 06:33:08;;;;;;;;;;;;;;;2.68;72.25;95194.44;5098947;28;20045;-70
2022/09/17 06:35:33;;;;;;;;;;;;;;;3.03;71.03;95205.34;5102058;28;19998;-70
2022/09/17 06:37:58;;;;;;;;;;;;;;;3.32;70.48;95212.34;5099403;28;20361;-70
2022/09/17 06:40:24;;;;;;;;;;;;;;;2.94;70.99;95200.91;5101230;28;20053;-70
2022/09/17 06:42:49;;;;;;;;;;;;;;;2.71;71.67;95202.03;5099957;28;19979;-70
2022/09/17 06:45:14;;;;;;;;;;;;;;;3.20;70.25;95203.78;5097231;28;19996;-70
2022/09/17 06:47:39;;;;;;;;;;;;;;;2.77;71.17;95198.03;5099832;28;20558;-70
2022/09/17 06:50:07;;;;;;;;;;;;;;;3.01;71.10;95196.75;5098246;28;21398;-70
2022/09/17 06:52:32;;;;;;;;;;;;;;;3.05;70.56;95208.66;5100111;28;19980;-70
2022/09/17 06:54:57;;;;;;;;;;;;;;;2.45;72.56;95207.03;5099308;28;19972;-70
2022/09/17 06:57:22;;;;;;;;;;;;;;;2.18;74.45;95208.50;5100430;28;20219;-70
2022/09/17 06:59:49;;;;;;;;;;;;;;;2.41;74.11;95203.00;5102019;28;20470;-70
2022/09/17 07:02:14;;;;;;;;;;;;;;;2.78;74.00;95202.31;5085965;28;20076;-70
2022/09/17 07:04:39;;;;;;;;;;;;;;;3.00;72.61;95205.63;5098458;28;20455;-70
2022/09/17 07:07:05;;;;;;;;;;;;;;;3.36;70.49;95204.97;5099904;28;19975;-70
2022/09/17 07:09:30;;;;;;;;;;;;;;;3.13;70.80;95208.78;5098947;28;19996;-70
2022/09/17 07:11:56;;;;;;;;;;;;;;;3.75;69.13;95202.28;5100980;28;20021;-70
2022/09/17 07:14:23;;;;;;;;;;;;;;;3.68;68.57;95204.63;5101680;28;20501;-70
2022/09/17 07:16:49;;;;;;;;;;;;;;;3.55;68.80;95202.31;5100361;28;19995;-70
2022/09/17 07:19:14;;;;;;;;;;;;;;;3.98;67.08;95196.59;5081702;28;19972;-70
2022/09/17 07:21:39;;;;;;;;;;;;;;;3.42;68.74;95201.78;5098962;28;20133;-70
2022/09/17 07:24:04;;;;;;;;;;;;;;;3.26;68.56;95213.75;5099689;28;20478;-70
2022/09/17 07:26:30;;;;;;;;;;;;;;;2.53;70.84;95215.84;5099979;28;19992;-70
2022/09/17 07:28:55;;;;;;;;;;;;;;;2.62;71.20;95208.94;5098891;28;19999;-70
2022/09/17 07:31:20;;;;;;;;;;;;;;;2.67;71.97;95212.97;5100057;28;20052;-70
2022/09/17 07:33:45;;;;;;;;;;;;;;;2.32;72.60;95204.66;5100215;28;19984;-70
2022/09/17 07:36:11;;;;;;;;;;;;;;;2.16;73.65;95206.00;5100158;28;20333;-70
2022/09/17 07:38:37;;;;;;;;;;;;;;;2.54;72.37;95198.31;5100702;28;19984;-70
2022/09/17 07:41:04;;;;;;;;;;;;;;;2.36;73.69;95212.13;5098587;28;19988;-70
2022/09/17 07:43:29;;;;;;;;;;;;;;;2.80;71.71;95210.91;5101508;28;20063;-70
2022/09/17 07:45:58;;;;;;;;;;;;;;;3.07;71.32;95211.16;5090200;28;20083;-70
2022/09/17 07:48:24;;;;;;;;;;;;;;;2.70;70.39;95213.53;5070891;28;20368;-71
2022/09/17 07:50:49;;;;;;;;;;;;;;;2.74;71.46;95211.44;5101562;28;20268;-70
2022/09/17 07:53:15;;;;;;;;;;;;;;;3.27;71.03;95219.84;5101673;28;19999;-70
2022/09/17 07:55:40;;;;;;;;;;;;;;;3.34;70.11;95215.69;5097769;28;19980;-70
2022/09/17 07:58:05;;;;;;;;;;;;;;;3.61;70.06;95227.25;5104187;28;20137;-70
2022/09/17 08:00:30;;;;;;;;;;;;;;;2.98;71.46;95210.19;5096870;28;19976;-70
2022/09/17 08:02:56;;;;;;;;;;;;;;;3.30;69.98;95225.63;5103260;28;19964;-70
2022/09/17 08:05:21;;;;;;;;;;;;;;;3.68;68.95;95223.06;5103256;27;20718;-70
2022/09/17 08:07:53;;;;;;;;;;;;;;;3.70;69.09;95222.09;5103086;27;19984;-70
2022/09/17 08:10:22;;;;;;;;;;;;;;;3.52;68.25;95236.00;5103906;28;19992;-70
2022/09/17 08:12:53;;;;;;;;;;;;;;;3.36;70.09;95233.94;5103606;28;20489;-70
2022/09/17 08:15:18;;;;;;;;;;;;;;;4.01;68.02;95217.38;5104529;28;20463;-70
2022/09/17 08:17:44;;;;;;;;;;;;;;;4.11;68.25;95219.16;5103989;28;19996;-69
2022/09/17 08:20:09;;;;;;;;;;;;;;;3.70;67.70;95232.63;5103479;27;19968;-70
2022/09/17 08:22:35;;;;;;;;;;;;;;;3.09;69.65;95233.69;5101929;28;20133;-70
2022/09/17 08:25:00;;;;;;;;;;;;;;;3.29;70.04;95229.25;5103628;28;20037;-70
2022/09/17 08:27:26;;;;;;;;;;;;;;;3.22;69.04;95232.56;5102863;28;20002;-69
2022/09/17 08:29:51;;;;;;;;;;;;;;;3.06;69.97;95235.81;5102176;28;19991;-70
2022/09/17 08:32:16;;;;;;;;;;;;;;;3.06;70.15;95233.16;5101464;28;19972;-71
2022/09/17 08:34:42;;;;;;;;;;;;;;;3.36;68.74;95237.41;5102889;28;20124;-71
2022/09/17 08:37:07;;;;;;;;;;;;;;;3.01;70.44;95242.31;5103599;28;19996;-70
2022/09/17 08:39:32;;;;;;;;;;;;;;;2.68;70.87;95236.50;5087663;28;19995;-69
2022/09/17 08:42:04;;;;;;;;;;;;;;;3.07;70.22;95250.59;5102777;28;20019;-70
2022/09/17 08:44:41;;;;;;;;;;;;;;;3.42;68.84;95241.25;5085971;28;19968;-70
2022/09/17 08:47:13;;;;;;;;;;;;;;;3.34;68.75;95239.34;5086203;28;19998;-70
2022/09/17 08:49:47;;;;;;;;;;;;;;;2.90;70.54;95248.53;5099980;28;20078;-69
2022/09/17 08:52:18;;;;;;;;;;;;;;;2.80;72.06;95239.81;5103388;28;20511;-70
2022/09/17 08:55:07;;;;;;;;;;;;;;;2.99;70.91;95241.59;5087121;28;19988;-71
2022/09/17 08:57:35;;;;;;;;;;;;;;;3.25;70.98;95240.19;5072495;28;19999;-70
2022/09/17 09:00:08;;;;;;;;;;;;;;;3.60;68.64;95235.31;5102014;28;20116;-70
2022/09/17 09:02:33;;;;;;;;;;;;;;;3.62;69.13;95242.09;5084074;28;19992;-70
2022/09/17 09:05:08;;;;;;;;;;;;;;;3.79;68.08;95239.66;5100626;28;20396;-69
2022/09/17 09:07:42;;;;;;;;;;;;;;;3.93;67.85;95241.84;5100659;28;20471;-69
2022/09/17 09:10:12;;;;;;;;;;;;;;;4.51;65.27;95238.16;5103621;27;20123;-70
2022/09/17 09:12:37;;;;;;;;;;;;;;;4.06;64.40;95241.47;5090809;28;19992;-70
2022/09/17 09:15:07;;;;;;;;;;;;;;;4.35;67.61;95225.66;5085878;28;20025;-70
2022/09/17 09:17:34;;;;;;;;;;;;;;;3.79;66.49;95261.56;5100866;28;20266;-70
2022/09/17 09:19:59;;;;;;;;;;;;;;;3.92;67.23;95234.88;5091083;28;20017;-70
2022/09/17 09:22:30;;;;;;;;;;;;;;;4.03;65.90;95240.94;5102539;28;19991;-70
2022/09/17 09:25:02;;;;;;;;;;;;;;;4.31;64.65;95238.28;5102548;27;19996;-70
2022/09/17 09:27:27;;;;;;;;;;;;;;;4.67;63.17;95235.72;5093644;28;20030;-70
2022/09/17 09:29:53;;;;;;;;;;;;;;;4.29;63.16;95248.16;5103149;28;19992;-70
2022/09/17 09:32:27;;;;;;;;;;;;;;;4.57;63.63;95248.97;5101588;28;19968;-70
2022/09/17 09:34:53;;;;;;;;;;;;;;;4.71;63.23;95239.72;5102809;28;20007;-71
2022/09/17 09:37:30;;;;;;;;;;;;;;;4.36;62.70;95241.34;5100605;28;19999;-70
2022/09/17 09:39:55;;;;;;;;;;;;;;;4.54;61.96;95244.00;5097018;28;20428;-70
2022/09/17 09:42:30;;;;;;;;;;;;;;;4.64;61.28;95249.19;5099147;28;19988;-70
2022/09/17 09:45:15;;;;;;;;;;;;;;;5.24;60.94;95233.75;5101688;28;19992;-71
2022/09/17 09:47:59;;;;;;;;;;;;;;;5.89;57.73;95236.09;5100980;28;19996;-71
2022/09/17 09:50:42;;;;;;;;;;;;;;;5.41;59.44;95234.66;5100671;28;20487;-71
2022/09/17 09:53:15;;;;;;;;;;;;;;;5.38;60.16;95240.28;5088632;28;20003;-70
2022/09/17 09:55:46;;;;;;;;;;;;;;;5.21;61.49;95239.31;5091832;28;19970;-70
2022/09/17 09:58:16;;;;;;;;;;;;;;;5.06;62.59;95245.16;5101707;28;19992;-69
2022/09/17 10:00:42;;;;;;;;;;;;;;;4.76;63.73;95243.72;5102605;28;19995;-69
2022/09/17 10:03:25;;;;;;;;;;;;;;;5.52;63.03;95240.69;5101709;28;20626;-69
2022/09/17 10:05:55;;;;;;;;;;;;;;;5.03;62.32;95239.31;5088395;28;20041;-69
2022/09/17 10:08:20;;;;;;;;;;;;;;;5.66;61.29;95240.13;5088864;28;19988;-69
2022/09/17 10:11:12;;;;;;;;;;;;;;;6.18;61.31;95233.09;5098176;28;20052;-70
2022/09/17 10:13:37;;;;;;;;;;;;;;;7.19;58.65;95234.94;5096685;28;20082;-69
2022/09/17 10:16:19;;;;;;;;;;;;;;;6.63;57.09;95233.72;5101321;28;19972;-69
2022/09/17 10:18:44;;;;;;;;;;;;;;;6.05;60.26;95246.75;5098192;28;19988;-69
2022/09/17 10:21:32;;;;;;;;;;;;;;;6.23;58.72;95243.19;5100251;28;20002;-69
2022/09/17 10:23:58;;;;;;;;;;;;;;;5.93;58.32;95248.84;5092216;28;19972;-69
2022/09/17 10:26:24;;;;;;;;;;;;;;;5.29;60.95;95254.38;5099384;28;19994;-69
2022/09/17 10:28:50;;;;;;;;;;;;;;;4.73;62.57;95258.00;5088250;28;20119;-69
2022/09/17 10:31:16;;;;;;;;;;;;;;;5.10;62.34;95240.38;5101387;28;20539;-70
2022/09/17 10:33:53;;;;;;;;;;;;;;;5.24;63.52;95248.75;5099904;28;20353;-69
2022/09/17 10:36:35;;;;;;;;;;;;;;;4.84;61.90;95247.22;5100567;28;20379;-69
2022/09/17 10:39:17;;;;;;;;;;;;;;;5.11;63.44;95252.63;5099683;28;20492;-70
2022/09/17 10:41:52;;;;;;;;;;;;;;;5.33;62.50;95250.44;5101983;28;19992;-69
2022/09/17 10:44:19;;;;;;;;;;;;;;;5.30;61.10;95245.47;5100266;28;20320;-70
2022/09/17 10:46:44;;;;;;;;;;;;;;;5.84;61.51;95247.13;5087000;28;20007;-70
2022/09/17 10:49:11;;;;;;;;;;;;;;;6.35;58.78;95241.91;5099423;28;20268;-69
2022/09/17 10:51:36;;;;;;;;;;;;;;;6.62;56.23;95232.09;5096158;28;19971;-70
2022/09/17 10:54:05;;;;;;;;;;;;;;;6.46;57.39;95235.47;5093121;28;20065;-69
2022/09/17 10:56:35;;;;;;;;;;;;;;;6.54;56.76;95240.00;5098701;28;19975;-69
2022/09/17 10:59:00;;;;;;;;;;;;;;;6.57;57.14;95233.56;5099998;28;20459;-69
2022/09/17 11:01:29;;;;;;;;;;;;;;;5.88;59.22;95235.25;5101675;28;19988;-69
2022/09/17 11:04:07;;;;;;;;;;;;;;;5.71;58.96;95243.09;5100486;28;19975;-69
2022/09/17 11:06:33;;;;;;;;;;;;;;;5.53;60.76;95243.16;5101528;28;19928;-70
2022/09/17 11:09:04;;;;;;;;;;;;;;;5.88;58.70;95235.25;5098410;28;19938;-70
2022/09/17 11:11:35;;;;;;;;;;;;;;;6.26;59.35;95229.66;5098899;28;20002;-70
2022/09/17 11:14:14;;;;;;;;;;;;;;;5.87;58.53;95238.91;5094818;28;20146;-70
2022/09/17 11:16:58;;;;;;;;;;;;;;;5.64;58.81;95238.63;5083453;28;20027;-70
2022/09/17 11:19:26;;;;;;;;;;;;;;;5.43;57.57;95235.34;5097398;28;20406;-70
2022/09/17 11:22:21;;;;;;;;;;;;;;;5.16;60.36;95225.75;5083939;28;20065;-70
2022/09/17 11:24:53;;;;;;;;;;;;;;;5.54;60.62;95228.16;5084129;28;20411;-70
2022/09/17 11:27:37;;;;;;;;;;;;;;;5.99;59.25;95224.41;5084208;28;19975;-70
2022/09/17 11:30:16;;;;;;;;;;;;;;;5.97;56.36;95221.13;5101596;28;19927;-72
2022/09/17 11:32:45;;;;;;;;;;;;;;;6.36;57.94;95214.47;5089080;28;20358;-71
2022/09/17 11:35:11;;;;;;;;;;;;;;;6.35;58.29;95206.69;5102938;28;20010;-71
2022/09/17 11:38:03;;;;;;;;;;;;;;;6.47;56.00;95213.31;5086760;28;20124;-71
2022/09/17 11:40:45;;;;;;;;;;;;;;;7.49;53.80;95214.06;5069353;28;19988;-71
2022/09/17 11:43:20;;;;;;;;;;;;;;;7.18;54.46;95204.19;5087260;28;20204;-71
2022/09/17 11:45:55;;;;;;;;;;;;;;;7.20;51.53;95207.47;5098396;28;20442;-73
2022/09/17 11:48:21;;;;;;;;;;;;;;;7.06;53.80;95210.78;5086942;28;19923;-71
2022/09/17 11:50:48;;;;;;;;;;;;;;;6.98;56.27;95207.16;5089695;28;20387;-71
2022/09/17 11:53:13;;;;;;;;;;;;;;;6.71;57.63;95195.91;5103428;28;19938;-71
2022/09/17 11:55:43;;;;;;;;;;;;;;;6.97;56.63;95205.47;5103598;27;19920;-71
2022/09/17 11:58:12;;;;;;;;;;;;;;;6.90;55.10;95196.53;5101849;28;19927;-71
2022/09/17 12:00:39;;;;;;;;;;;;;;;7.65;53.20;95194.63;5103139;28;19931;-70
2022/09/17 12:03:09;;;;;;;;;;;;;;;7.18;53.10;95193.59;5103514;28;20321;-71
2022/09/17 12:05:53;;;;;;;;;;;;;;;6.48;51.61;95198.28;5103495;28;20146;-70
2022/09/17 12:08:33;;;;;;;;;;;;;;;6.31;54.09;95197.44;5091391;28;20375;-71
2022/09/17 12:11:18;;;;;;;;;;;;;;;4.86;64.28;95212.78;5089868;28;19919;-69
2022/09/17 12:13:48;;;;;;;;;;;;;;;4.97;66.48;95204.63;5101461;28;19931;-69
2022/09/17 12:16:26;;;;;;;;;;;;;;;4.47;68.35;95211.28;5092907;28;20131;-70
2022/09/17 12:18:57;;;;;;;;;;;;;;;4.78;66.15;95196.88;5102915;28;20003;-70
2022/09/17 12:21:26;;;;;;;;;;;;;;;5.53;66.52;95194.81;5101842;28;20094;-70
2022/09/17 12:23:56;;;;;;;;;;;;;;;6.01;60.13;95187.25;5104393;28;19995;-69
2022/09/17 12:26:40;;;;;;;;;;;;;;;5.72;58.29;95193.75;5103468;28;19984;-69
2022/09/17 12:29:35;;;;;;;;;;;;;;;5.08;59.56;95184.31;5103112;28;20000;-69
2022/09/17 12:32:00;;;;;;;;;;;;;;;5.40;59.17;95177.56;5082855;28;20476;-69
2022/09/17 12:34:26;;;;;;;;;;;;;;;4.91;59.66;95197.34;5102280;28;20031;-69
2022/09/17 12:36:57;;;;;;;;;;;;;;;3.50;66.62;95225.63;5100671;28;19992;-69
2022/09/17 12:39:34;;;;;;;;;;;;;;;3.26;68.37;95218.16;5087855;28;20403;-68
2022/09/17 12:41:59;;;;;;;;;;;;;;;3.23;70.90;95231.63;5090539;28;20019;-68
2022/09/17 12:44:44;;;;;;;;;;;;;;;3.10;72.58;95232.72;5102487;28;20437;-69
2022/09/17 12:47:27;;;;;;;;;;;;;;;3.06;73.01;95228.72;5100852;28;19995;-69
2022/09/17 12:50:16;;;;;;;;;;;;;;;3.68;71.01;95233.59;5085486;28;19992;-69
2022/09/17 12:52:56;;;;;;;;;;;;;;;4.75;70.97;95215.66;5073926;28;20292;-69
2022/09/17 12:55:23;;;;;;;;;;;;;;;5.47;69.78;95218.22;5101447;28;20595;-69
2022/09/17 12:58:00;;;;;;;;;;;;;;;5.74;66.11;95203.19;5102554;28;19995;-69
2022/09/17 13:00:25;;;;;;;;;;;;;;;5.42;64.93;95201.19;5087672;28;19999;-69
2022/09/17 13:03:01;;;;;;;;;;;;;;;6.10;63.39;95201.34;5089095;28;20022;-69
2022/09/17 13:05:42;;;;;;;;;;;;;;;5.95;62.15;95206.41;5082670;28;20110;-69
2022/09/17 13:08:22;;;;;;;;;;;;;;;6.29;60.77;95194.13;5101875;28;20508;-69